Portada
METAR-TAF:

METAR-TAF

Aeroports :

Turaif, Aràbia Saudita

latitud: 31-41N, longitud: 038-44E, altitud: 813 m

Observació

L'informe es va fer fa 29 minuts, a les 03:00 UTC
Vent 8 kt del Oest
Temperatura 7°C
Humitat 93%
Pressió 1013 hPa
Visibilitat 10 km o més
sense núvols per sota de 1500 mi sense presència de cumulonimbus.

METAR: OETR 290300Z 26008KT CAVOK 07/06 Q1013

Hora: 06:29 (03:29 UTC)

Pronòstic

L'informe es va fer fa 4 hores i 29 minuts, a les 23:00 UTC
Pronòstic vàlid del 29 a les 00 UTC al 30 a les 06 UTC
Vent 8 kt del Oest
Visibilitat: 7000 m
Temporalment
l' 29 a les 00 UTC al 29 a les 05 UTC
Visibilitat: 3500 m
boirina
Evolucionant progressivament
l' 29 a les 06 UTC al 29 a les 08 UTC
Vent 10 kt del Oest/Nord-Oest amb ràfegues de 20 kt

TAF: OETR 282300Z 2900/3006 28008KT 7000 NSC TEMPO 2900/2905 3500 BR BECMG 2906/2908 30010G20KT

Observacions i pronòstics meteorològics de més de 4000 aeroports (METAR i TAF).

Les estacions disponibles són els punts grocs i vermells al mapa.

Posi el ratolí al punt desitjat per veure el nom de l'estació.

Feu clic per veure les observacions i els pronòstics meteorològics.

Per canviar el mapa: feu clic els botons verds amb una creu de color negre per apropar; al botó verd amb un guió per allunyar la imatge; o en les fletxes verdes per a mapes adjacents.


METAR-TAF: